Time;durP1;ratioP1;P1;durP2;ratioP2;P2;SDS_P1;SDS_P2;PMS_P1;PMS_P2;Temp;Humidity;BMP_temperature;BMP_pressure;BME280_temperature;BME280_humidity;BME280_pressure;Samples;Min_cycle;Max_cycle;Signal;HPM_P1;HPM_P2
2022/02/07 00:02:10;;;;;;;;;38.67;36.00;;;;;1.23;91.39;101177.53;6307155;22;11662;-71
2022/02/07 00:05:06;;;;;;;;;40.67;33.33;;;;;1.25;91.39;101166.34;6306869;22;8788;-71
2022/02/07 00:08:03;;;;;;;;;36.67;36.00;;;;;1.14;92.05;101168.13;6306795;22;12242;-71
2022/02/07 00:10:59;;;;;;;;;29.00;29.00;;;;;1.12;91.86;101164.84;6306780;22;11523;-71
2022/02/07 00:13:55;;;;;;;;;38.33;35.33;;;;;1.16;92.17;101167.91;6307016;22;12176;-71
2022/02/07 00:16:50;;;;;;;;;32.00;30.33;;;;;1.22;91.68;101169.56;6307128;22;8779;-71
2022/02/07 00:19:46;;;;;;;;;32.67;29.67;;;;;1.24;91.46;101160.09;6306715;22;12220;-71
2022/02/07 00:22:43;;;;;;;;;46.00;41.33;;;;;1.24;91.59;101149.19;6306720;22;11521;-70
2022/02/07 00:25:39;;;;;;;;;32.67;32.33;;;;;1.24;91.71;101148.38;6306827;22;8860;-70
2022/02/07 00:28:34;;;;;;;;;26.67;26.67;;;;;1.32;91.93;101137.81;6306679;22;11495;-70
2022/02/07 00:31:30;;;;;;;;;27.67;27.67;;;;;1.38;91.71;101142.25;6306623;22;11678;-70
2022/02/07 00:34:26;;;;;;;;;27.75;24.00;;;;;1.37;91.92;101134.28;6306745;22;11524;-70
2022/02/07 00:37:27;;;;;;;;;26.67;24.00;;;;;1.39;91.98;101141.16;6306706;22;11591;-70
2022/02/07 00:46:23;;;;;;;;;21.25;21.25;;;;;1.42;92.54;101120.72;6306697;22;11505;-70
2022/02/07 00:49:19;;;;;;;;;16.50;15.25;;;;;1.47;92.84;101109.06;6306585;22;12247;-70
2022/02/07 00:52:15;;;;;;;;;20.25;20.00;;;;;1.57;92.18;101100.94;6306385;22;11582;-70
2022/02/07 00:55:10;;;;;;;;;21.25;21.25;;;;;1.54;92.51;101098.75;6306540;22;11478;-70
2022/02/07 00:58:06;;;;;;;;;20.50;20.50;;;;;1.50;92.92;101090.25;6306360;22;11509;-69
2022/02/07 01:01:02;;;;;;;;;20.25;18.00;;;;;1.62;92.47;101087.38;6305998;22;11477;-70
2022/02/07 01:03:58;;;;;;;;;23.75;23.75;;;;;1.67;92.49;101080.03;6306344;22;11497;-70
2022/02/07 01:06:54;;;;;;;;;18.00;17.50;;;;;1.63;93.03;101075.38;6303846;22;11502;-69
2022/02/07 01:09:52;;;;;;;;;18.50;16.75;;;;;1.69;92.73;101066.16;6303951;22;11540;-70
2022/02/07 01:13:16;;;;;;;;;14.00;14.00;;;;;1.67;93.43;101062.84;6323748;22;11477;-70
2022/02/07 01:54:59;;;;;;;;;26.00;20.50;;;;;2.06;92.94;101006.06;6308251;22;11556;-70
2022/02/07 01:57:59;;;;;;;;;24.00;21.25;;;;;2.01;93.49;100992.41;6308320;22;11479;-70
2022/02/07 02:00:55;;;;;;;;;23.00;22.25;;;;;2.05;93.33;100998.13;6309130;22;12243;-70
2022/02/07 02:03:51;;;;;;;;;18.50;18.25;;;;;2.05;93.54;100987.22;6308183;22;11492;-70
2022/02/07 02:06:46;;;;;;;;;17.50;17.50;;;;;2.12;93.73;100980.44;6308032;22;11494;-70
2022/02/07 02:09:42;;;;;;;;;10.50;10.50;;;;;2.20;93.17;100973.63;6308047;22;11579;-70
2022/02/07 02:12:58;;;;;;;;;18.75;17.75;;;;;2.11;93.10;100970.63;6308042;22;11636;-70
2022/02/07 02:16:12;;;;;;;;;14.75;14.75;;;;;2.11;93.67;100965.16;6308112;22;11489;-69
2022/02/07 02:38:21;;;;;;;;;12.50;12.50;;;;;2.16;92.93;100939.81;6307918;22;11524;-70
2022/02/07 02:47:45;;;;;;;;;14.00;13.00;;;;;2.19;93.36;100928.34;6307822;22;11477;-70
2022/02/07 02:50:43;;;;;;;;;9.75;9.75;;;;;2.26;92.32;100925.34;6307673;22;11479;-70
2022/02/07 02:53:38;;;;;;;;;14.50;12.75;;;;;2.26;92.81;100928.09;6307847;22;11443;-70
2022/02/07 02:56:35;;;;;;;;;7.75;7.75;;;;;2.29;93.13;100917.44;6307732;22;11462;-70
2022/02/07 02:59:31;;;;;;;;;13.00;13.00;;;;;2.27;92.75;100905.16;6307109;22;11451;-70
2022/02/07 03:02:26;;;;;;;;;10.00;10.00;;;;;2.37;92.81;100907.91;6307134;22;11471;-70
2022/02/07 03:05:22;;;;;;;;;7.50;7.50;;;;;2.37;92.03;100916.09;6306843;22;11544;-70
2022/02/07 03:08:19;;;;;;;;;11.25;11.25;;;;;2.40;92.11;100904.66;6306509;22;11504;-70
2022/02/07 03:11:20;;;;;;;;;13.50;11.75;;;;;2.39;92.13;100905.75;6306724;22;11464;-70
2022/02/07 03:14:22;;;;;;;;;15.75;14.25;;;;;2.33;92.11;100907.63;6324170;22;11463;-70
2022/02/07 03:17:17;;;;;;;;;9.25;8.75;;;;;2.30;92.75;100901.88;6307220;22;12172;-70
2022/02/07 03:20:13;;;;;;;;;12.50;12.50;;;;;2.37;92.58;100897.78;6306648;22;11677;-70
2022/02/07 03:23:09;;;;;;;;;4.50;4.50;;;;;2.37;92.48;100894.25;6306621;22;11482;-70
2022/02/07 03:26:05;;;;;;;;;10.25;9.75;;;;;2.41;92.01;100890.72;6306798;22;11441;-70
2022/02/07 03:29:01;;;;;;;;;8.75;8.75;;;;;2.41;92.19;100890.72;6306637;22;11472;-69
2022/02/07 03:31:56;;;;;;;;;8.25;8.25;;;;;2.34;92.49;100884.69;6306848;22;11486;-69
2022/02/07 03:34:52;;;;;;;;;8.00;8.00;;;;;2.45;92.73;100882.78;6306707;22;11463;-69
2022/02/07 03:37:48;;;;;;;;;11.25;10.00;;;;;2.56;92.21;100883.63;6306714;22;11450;-69
2022/02/07 03:40:43;;;;;;;;;11.25;11.25;;;;;2.47;92.23;100886.09;6306456;22;11444;-69
2022/02/07 03:43:39;;;;;;;;;8.25;8.25;;;;;2.60;91.64;100879.25;6306471;22;11470;-69
2022/02/07 03:46:35;;;;;;;;;8.50;8.50;;;;;2.50;91.93;100875.44;6306571;22;11414;-69
2022/02/07 03:49:31;;;;;;;;;8.00;7.50;;;;;2.55;91.51;100876.53;6306404;22;11446;-69
2022/02/07 03:52:26;;;;;;;;;8.50;7.75;;;;;2.55;91.61;100871.06;6306395;22;12133;-69
2022/02/07 03:55:22;;;;;;;;;8.00;8.00;;;;;2.59;91.61;100856.59;6306490;22;11506;-69
2022/02/07 03:58:21;;;;;;;;;9.00;9.00;;;;;2.53;91.71;100854.13;6306357;22;11429;-69
2022/02/07 04:01:19;;;;;;;;;10.75;8.50;;;;;2.58;92.32;100840.47;6306237;22;12283;-70
2022/02/07 04:04:15;;;;;;;;;7.00;5.50;;;;;2.58;91.61;100846.75;6306483;22;11404;-70
2022/02/07 04:07:12;;;;;;;;;8.00;8.00;;;;;2.55;91.73;100849.22;6306424;22;11515;-69
2022/02/07 04:10:08;;;;;;;;;6.50;6.50;;;;;2.59;91.50;100842.94;6306092;22;11465;-70
2022/02/07 04:13:05;;;;;;;;;10.50;10.50;;;;;2.64;91.20;100839.41;6306246;22;11539;-69
2022/02/07 04:16:03;;;;;;;;;8.00;8.00;;;;;2.60;91.81;100830.91;6306268;22;11525;-70
2022/02/07 04:19:20;;;;;;;;;10.00;10.00;;;;;2.66;91.39;100835.28;6306093;22;11451;-69
2022/02/07 04:22:15;;;;;;;;;7.75;7.75;;;;;2.46;92.12;100838.88;6305964;22;12142;-70
2022/02/07 04:25:11;;;;;;;;;8.00;8.00;;;;;2.47;92.40;100836.94;6305519;22;11632;-70
2022/02/07 04:28:07;;;;;;;;;2.00;2.00;;;;;2.38;92.37;100844.06;6304425;22;11432;-69
2022/02/07 04:31:02;;;;;;;;;9.25;9.25;;;;;2.46;92.25;100836.13;6306003;22;11443;-69
2022/02/07 04:33:58;;;;;;;;;7.00;7.00;;;;;2.49;91.74;100835.56;6303621;22;11477;-70
2022/02/07 04:36:56;;;;;;;;;9.00;9.00;;;;;2.48;92.26;100836.66;6305936;22;11511;-70
2022/02/07 04:39:53;;;;;;;;;6.50;6.50;;;;;2.36;92.46;100825.19;6305972;22;11448;-70
2022/02/07 04:42:49;;;;;;;;;7.00;7.00;;;;;2.38;92.49;100828.50;6306528;22;11436;-70
2022/02/07 04:57:04;;;;;;;;;9.50;9.50;;;;;2.51;92.69;100825.19;6209883;23;12286;-70
2022/02/07 04:59:06;;;;;;;;;11.00;11.00;;;;;2.58;92.91;100824.91;6305536;22;12200;-70
2022/02/07 05:14:50;;;;;;;;;9.50;9.50;;;;;2.55;93.36;100816.47;6307723;22;11498;-70
2022/02/07 05:17:46;;;;;;;;;12.00;10.00;;;;;2.55;93.02;100811.00;6306131;22;11439;-69
2022/02/07 05:20:41;;;;;;;;;11.50;11.50;;;;;2.56;93.93;100818.91;6303599;22;11511;-69
2022/02/07 05:23:37;;;;;;;;;13.00;13.00;;;;;2.61;93.49;100816.19;6323074;22;12201;-70
2022/02/07 05:26:33;;;;;;;;;7.25;6.75;;;;;2.70;93.18;100808.25;6305721;22;12220;-69
2022/02/07 05:29:28;;;;;;;;;14.75;11.50;;;;;2.66;93.20;100799.78;6306202;22;11431;-70
2022/02/07 05:32:24;;;;;;;;;9.50;8.75;;;;;2.69;92.71;100792.97;6306260;22;11622;-69
2022/02/07 05:35:19;;;;;;;;;9.50;9.50;;;;;2.68;93.89;100791.31;6306327;22;11491;-69
2022/02/07 05:38:15;;;;;;;;;7.50;7.50;;;;;2.75;94.12;100794.56;6303648;22;11431;-69
2022/02/07 05:41:12;;;;;;;;;10.50;9.00;;;;;2.87;93.61;100792.38;6301771;22;11454;-69
2022/02/07 05:44:08;;;;;;;;;11.50;11.50;;;;;2.89;92.59;100797.56;6305845;22;11572;-69
2022/02/07 05:47:05;;;;;;;;;13.00;12.50;;;;;2.84;93.84;100798.41;6305926;22;11470;-72
2022/02/07 05:50:02;;;;;;;;;11.25;9.75;;;;;2.86;93.55;100790.75;6306127;22;11513;-72
2022/02/07 05:52:59;;;;;;;;;7.00;7.00;;;;;2.94;93.96;100803.84;6306211;22;11589;-72
2022/02/07 05:55:54;;;;;;;;;8.50;8.50;;;;;2.95;93.57;100801.91;6305752;22;11513;-72
2022/02/07 05:58:50;;;;;;;;;10.00;9.00;;;;;3.07;92.99;100788.78;6305796;22;11486;-72
2022/02/07 06:01:46;;;;;;;;;8.25;8.25;;;;;3.10;93.08;100779.19;6305974;22;11432;-72
2022/02/07 06:04:41;;;;;;;;;7.00;7.00;;;;;3.18;92.46;100786.81;6305680;22;11454;-73
2022/02/07 06:07:37;;;;;;;;;7.75;7.75;;;;;3.20;92.23;100784.63;6307791;22;11416;-71
2022/02/07 06:10:33;;;;;;;;;7.00;7.00;;;;;3.41;91.63;100791.66;6307346;22;11441;-71
2022/02/07 06:13:29;;;;;;;;;4.00;4.00;;;;;3.26;91.52;100783.50;6307668;22;11598;-71
2022/02/07 06:16:24;;;;;;;;;9.50;9.50;;;;;3.34;91.11;100785.66;6307548;22;11455;-72
2022/02/07 06:18:52;;;;;;;;;9.00;9.00;;;;;3.38;90.99;100778.53;6305432;22;12130;-71
2022/02/07 06:21:48;;;;;;;;;6.75;6.75;;;;;3.41;91.47;100783.44;6307609;22;11457;-71
2022/02/07 06:24:44;;;;;;;;;11.50;9.50;;;;;3.35;91.23;100776.34;6307580;22;12149;-71
2022/02/07 06:27:39;;;;;;;;;6.75;6.75;;;;;3.36;91.35;100761.59;6307523;22;11464;-71
2022/02/07 06:30:35;;;;;;;;;6.25;6.25;;;;;3.22;92.52;100760.53;6307482;22;11463;-71
2022/02/07 06:33:30;;;;;;;;;6.25;6.25;;;;;3.37;91.21;100765.13;6307642;22;11583;-71
2022/02/07 06:36:27;;;;;;;;;8.00;8.00;;;;;3.43;91.76;100767.56;6306919;22;11428;-70
2022/02/07 06:39:23;;;;;;;;;11.00;11.00;;;;;3.41;91.62;100769.78;6307021;22;11570;-70
2022/02/07 06:42:19;;;;;;;;;9.75;9.25;;;;;3.52;91.65;100765.06;6307164;22;11471;-71
2022/02/07 06:45:15;;;;;;;;;7.00;7.00;;;;;3.50;91.56;100750.84;6307034;22;12199;-70
2022/02/07 06:48:10;;;;;;;;;8.00;6.75;;;;;3.54;90.79;100758.22;6307084;22;11516;-71
2022/02/07 06:51:06;;;;;;;;;6.50;6.50;;;;;3.41;91.25;100749.81;6323906;22;12888;-71
2022/02/07 06:54:03;;;;;;;;;12.50;11.00;;;;;3.65;91.11;100760.88;6306536;22;11514;-70
2022/02/07 06:56:58;;;;;;;;;6.75;6.75;;;;;3.44;91.40;100761.00;6303316;22;11486;-71
2022/02/07 06:59:54;;;;;;;;;9.50;9.50;;;;;3.60;91.45;100757.09;6306678;22;11418;-70
2022/02/07 07:02:50;;;;;;;;;9.00;9.00;;;;;3.65;90.80;100758.16;6306909;22;11463;-72
2022/02/07 07:05:48;;;;;;;;;5.00;4.25;;;;;3.64;90.88;100754.59;6307158;22;11522;-69
2022/02/07 07:08:51;;;;;;;;;5.50;5.50;;;;;3.65;90.98;100744.47;6307180;22;11462;-70
2022/02/07 07:11:48;;;;;;;;;11.25;8.25;;;;;3.63;90.40;100751.06;6307315;22;11453;-73
2022/02/07 07:14:47;;;;;;;;;8.75;8.75;;;;;3.65;90.43;100749.94;6307307;22;12170;-70
2022/02/07 07:17:43;;;;;;;;;7.75;7.75;;;;;3.33;91.54;100737.56;6306466;22;12157;-71
2022/02/07 07:20:39;;;;;;;;;8.25;8.25;;;;;3.45;91.37;100729.00;6307589;22;11471;-70
2022/02/07 07:23:38;;;;;;;;;7.75;7.75;;;;;3.48;91.69;100729.25;6307393;22;11530;-70
2022/02/07 07:26:34;;;;;;;;;17.25;17.25;;;;;3.42;91.17;100735.84;6306695;22;11531;-70
2022/02/07 07:29:37;;;;;;;;;10.00;10.00;;;;;3.44;91.13;100725.44;6306967;22;11517;-70
2022/02/07 07:32:33;;;;;;;;;7.75;7.75;;;;;3.42;91.46;100730.38;6306632;22;11530;-70
2022/02/07 07:35:28;;;;;;;;;6.25;6.25;;;;;3.46;90.72;100730.66;6306381;22;12245;-70
2022/02/07 07:38:24;;;;;;;;;4.00;4.00;;;;;3.30;91.39;100738.13;6306904;22;11430;-70
2022/02/07 07:41:23;;;;;;;;;9.00;9.00;;;;;2.96;93.55;100738.81;6306235;22;11611;-70
2022/02/07 07:44:24;;;;;;;;;3.50;1.50;;;;;2.74;94.13;100722.75;6305280;22;11452;-70
2022/02/07 07:47:28;;;;;;;;;2.00;2.00;;;;;2.73;95.09;100742.16;6306259;22;11472;-69
2022/02/07 07:50:30;;;;;;;;;9.00;8.00;;;;;2.70;95.37;100742.72;6306541;22;11452;-70
2022/02/07 08:02:54;;;;;;;;;7.00;4.75;;;;;2.98;94.06;100733.88;6306430;22;11626;-70
2022/02/07 08:06:06;;;;;;;;;5.75;5.75;;;;;2.92;94.90;100721.34;6303834;22;11527;-70
2022/02/07 08:12:00;;;;;;;;;4.00;4.00;;;;;2.99;93.80;100721.03;6306784;22;11468;-70
2022/02/07 08:14:56;;;;;;;;;9.50;8.75;;;;;3.04;93.79;100716.38;6306181;22;11477;-70
2022/02/07 08:17:51;;;;;;;;;9.00;9.00;;;;;3.13;93.10;100713.84;6306283;22;11456;-69
2022/02/07 08:20:47;;;;;;;;;4.00;4.00;;;;;3.17;92.56;100708.66;6305931;22;11503;-69
2022/02/07 08:23:43;;;;;;;;;5.25;5.25;;;;;3.10;92.91;100703.50;6306551;22;11552;-70
2022/02/07 08:26:40;;;;;;;;;5.00;5.00;;;;;3.33;92.11;100693.81;6306156;22;11463;-69
2022/02/07 08:29:36;;;;;;;;;8.50;8.00;;;;;3.51;92.01;100689.59;6306935;22;11474;-71
2022/02/07 08:32:31;;;;;;;;;6.75;6.75;;;;;3.32;91.79;100692.19;6306383;22;11509;-69
2022/02/07 08:35:27;;;;;;;;;4.25;4.25;;;;;3.43;92.50;100692.94;6306473;22;11422;-70
2022/02/07 08:38:23;;;;;;;;;4.00;4.00;;;;;3.39;91.65;100698.16;6305869;22;11443;-72
2022/02/07 08:41:18;;;;;;;;;10.50;10.50;;;;;3.38;91.92;100702.00;6305453;22;12238;-71
2022/02/07 08:44:14;;;;;;;;;8.00;8.00;;;;;3.32;91.80;100700.38;6303596;22;11573;-71
2022/02/07 08:47:10;;;;;;;;;6.00;6.00;;;;;3.39;91.54;100691.88;6306120;22;11555;-70
2022/02/07 08:50:06;;;;;;;;;4.75;4.75;;;;;3.72;90.30;100703.94;6305670;22;11518;-70
2022/02/07 08:53:03;;;;;;;;;5.50;5.50;;;;;3.38;90.68;100695.72;6305719;22;11438;-70
2022/02/07 08:56:01;;;;;;;;;5.00;5.00;;;;;3.59;90.95;100695.28;6305653;22;12288;-69
2022/02/07 08:58:56;;;;;;;;;8.25;8.25;;;;;3.48;90.71;100690.16;6305710;22;11443;-70
2022/02/07 09:02:10;;;;;;;;;5.25;5.25;;;;;3.56;90.41;100686.84;6305689;22;11547;-70
2022/02/07 09:08:26;;;;;;;;;6.00;6.00;;;;;3.53;90.45;100676.47;6305731;22;11528;-70
2022/02/07 09:11:23;;;;;;;;;8.50;6.25;;;;;3.87;88.66;100668.25;6305466;22;11449;-70
2022/02/07 09:14:22;;;;;;;;;4.50;4.50;;;;;3.53;90.04;100666.34;6306291;22;12228;-70
2022/02/07 09:17:18;;;;;;;;;7.50;7.50;;;;;3.93;89.05;100667.13;6305893;22;12168;-69
2022/02/07 09:20:13;;;;;;;;;5.00;5.00;;;;;3.70;89.53;100656.94;6305992;22;11449;-70
2022/02/07 09:23:10;;;;;;;;;4.50;4.50;;;;;4.01;88.58;100665.69;6305677;22;11442;-71
2022/02/07 09:26:06;;;;;;;;;7.00;7.00;;;;;3.59;89.15;100664.38;6305492;22;11435;-71
2022/02/07 09:29:02;;;;;;;;;7.75;7.75;;;;;3.74;88.88;100641.56;6305328;22;11479;-70
2022/02/07 09:32:00;;;;;;;;;6.75;5.25;;;;;3.78;88.91;100651.66;6305515;22;11586;-71
2022/02/07 09:34:56;;;;;;;;;5.75;5.75;;;;;3.52;88.85;100634.63;6304065;22;11477;-71
2022/02/07 09:37:53;;;;;;;;;5.75;5.50;;;;;3.68;89.29;100621.66;6305982;22;12130;-70
2022/02/07 09:40:52;;;;;;;;;4.75;4.75;;;;;3.73;88.60;100627.06;6306093;22;11427;-70
2022/02/07 09:43:49;;;;;;;;;8.00;8.00;;;;;3.93;87.68;100617.06;6308074;22;11550;-69
2022/02/07 09:46:47;;;;;;;;;9.25;9.00;;;;;4.01;88.17;100625.47;6309033;22;11454;-71
2022/02/07 09:49:45;;;;;;;;;7.50;6.50;;;;;4.08;87.13;100611.44;6308105;22;11470;-70
2022/02/07 09:52:41;;;;;;;;;5.25;5.25;;;;;3.99;87.32;100611.25;6306873;22;11446;-69
2022/02/07 09:55:12;;;;;;;;;5.75;5.75;;;;;4.24;86.73;100607.44;6306051;22;11532;-70
2022/02/07 09:58:09;;;;;;;;;4.00;4.00;;;;;4.02;87.01;100587.97;6307180;22;11558;-70
2022/02/07 10:01:11;;;;;;;;;6.00;6.00;;;;;4.20;86.35;100603.63;6307760;22;11460;-70
2022/02/07 10:04:13;;;;;;;;;5.75;5.00;;;;;4.31;85.82;100585.19;6307679;22;11440;-70
2022/02/07 10:13:21;;;;;;;;;9.00;9.00;;;;;4.23;87.05;100583.09;6307767;22;11457;-68
2022/02/07 10:46:18;;;;;;;;;11.00;11.00;;;;;5.47;83.47;100535.28;6308042;22;12273;-72
2022/02/07 10:48:53;;;;;;;;;18.25;13.50;;;;;5.51;84.07;100528.88;6317004;22;11455;-72
2022/02/07 10:51:36;;;;;;;;;9.50;9.50;;;;;5.59;83.49;100521.88;6316009;22;11557;-73
2022/02/07 10:54:31;;;;;;;;;12.00;12.00;;;;;5.61;83.77;100525.16;6307084;22;12201;-73
2022/02/07 10:57:27;;;;;;;;;16.00;14.00;;;;;5.58;84.10;100515.59;6307567;22;11541;-73
2022/02/07 11:00:29;;;;;;;;;13.50;13.00;;;;;5.52;84.43;100514.06;6307297;22;11512;-75
2022/02/07 11:03:41;;;;;;;;;15.25;15.25;;;;;5.61;84.01;100510.63;6307389;22;11519;-73
2022/02/07 11:06:43;;;;;;;;;10.50;10.50;;;;;5.59;84.69;100516.41;6306955;22;11519;-72
2022/02/07 11:10:18;;;;;;;;;15.25;14.25;;;;;5.77;84.80;100510.06;6307076;22;11483;-74
2022/02/07 11:16:11;;;;;;;;;15.50;15.50;;;;;5.93;84.34;100501.56;6306948;22;11496;-74
2022/02/07 11:28:43;;;;;;;;;14.00;14.00;;;;;6.15;85.39;100501.66;6307199;22;11503;-73
2022/02/07 11:31:40;;;;;;;;;13.75;13.75;;;;;6.18;84.43;100486.50;6307231;22;12195;-73
2022/02/07 11:34:44;;;;;;;;;17.75;17.75;;;;;6.18;83.96;100487.31;6307184;22;11495;-73
2022/02/07 11:37:41;;;;;;;;;15.00;15.00;;;;;6.20;84.72;100478.75;6307119;22;11513;-73
2022/02/07 11:40:43;;;;;;;;;16.00;14.50;;;;;6.25;84.79;100490.47;6307542;22;12256;-71
2022/02/07 11:43:39;;;;;;;;;11.75;10.50;;;;;6.25;84.28;100482.22;6307259;22;12244;-72
2022/02/07 11:46:36;;;;;;;;;18.75;18.75;;;;;6.25;84.43;100467.69;6305613;22;11456;-73
2022/02/07 11:49:38;;;;;;;;;9.50;9.50;;;;;6.21;84.98;100462.00;6306941;22;11494;-72
2022/02/07 11:52:48;;;;;;;;;17.75;17.00;;;;;6.28;84.61;100467.88;6315039;22;11494;-72
2022/02/07 11:55:49;;;;;;;;;15.25;15.25;;;;;6.31;84.72;100461.78;6304900;22;11442;-74
2022/02/07 11:59:14;;;;;;;;;18.00;17.75;;;;;6.21;85.43;100456.50;6306686;22;11496;-72
2022/02/07 12:02:19;;;;;;;;;14.75;14.75;;;;;6.32;85.49;100463.41;6306099;22;11511;-74
2022/02/07 12:05:20;;;;;;;;;18.00;18.00;;;;;6.42;85.03;100473.34;6324176;22;11487;-75
2022/02/07 12:08:19;;;;;;;;;16.50;15.75;;;;;6.33;85.41;100461.47;6306712;22;11559;-75
2022/02/07 12:11:16;;;;;;;;;22.75;22.75;;;;;6.34;85.67;100468.56;6306784;22;11517;-76
2022/02/07 12:14:35;;;;;;;;;22.25;21.50;;;;;6.32;85.81;100465.34;6306170;22;11513;-76
2022/02/07 12:17:38;;;;;;;;;23.25;21.00;;;;;6.44;85.96;100456.53;6306990;22;11451;-74
2022/02/07 12:20:37;;;;;;;;;17.75;14.75;;;;;6.54;85.99;100462.63;6306660;22;11460;-76
2022/02/07 12:23:35;;;;;;;;;19.50;19.50;;;;;6.65;84.85;100465.97;6306311;22;11445;-76
2022/02/07 12:26:42;;;;;;;;;18.50;18.50;;;;;6.65;85.73;100460.47;6306534;22;11525;-74
2022/02/07 12:29:59;;;;;;;;;21.50;19.25;;;;;6.62;85.67;100450.09;6306567;22;11526;-75
2022/02/07 12:32:54;;;;;;;;;19.50;19.50;;;;;6.65;85.77;100438.47;6306242;22;11450;-76
2022/02/07 12:35:49;;;;;;;;;16.00;16.00;;;;;6.84;85.71;100433.63;6306250;22;11512;-78
2022/02/07 12:38:46;;;;;;;;;15.00;14.75;;;;;6.81;84.81;100442.47;6303972;22;11435;-74
2022/02/07 12:41:43;;;;;;;;;20.50;20.50;;;;;6.89;85.31;100432.69;6304201;22;12111;-75
2022/02/07 12:44:38;;;;;;;;;24.75;24.50;;;;;7.01;84.51;100435.69;6303669;22;12544;-75
2022/02/07 12:47:37;;;;;;;;;21.00;21.00;;;;;7.02;84.34;100436.50;6306967;22;11428;-74
2022/02/07 12:50:33;;;;;;;;;23.50;22.25;;;;;7.05;84.43;100435.84;6306372;22;11508;-75
2022/02/07 12:53:21;;;;;;;;;22.75;22.75;;;;;6.93;84.46;100429.00;6306718;22;11615;-75
2022/02/07 12:56:16;;;;;;;;;23.50;23.25;;;;;6.86;85.08;100412.13;6306540;22;11487;-75
2022/02/07 12:59:12;;;;;;;;;29.25;24.00;;;;;6.79;85.10;100413.69;6306108;22;11474;-75
2022/02/07 13:02:08;;;;;;;;;25.75;25.75;;;;;6.84;84.66;100406.16;6306068;22;12254;-74
2022/02/07 13:04:36;;;;;;;;;24.75;21.00;;;;;6.83;85.44;100410.03;6315374;22;12178;-75
2022/02/07 13:07:06;;;;;;;;;29.00;29.00;;;;;6.80;85.22;100393.31;6339897;22;11486;-78
2022/02/07 13:10:02;;;;;;;;;27.75;27.75;;;;;6.78;85.77;100382.66;6306377;22;11497;-73
2022/02/07 13:15:57;;;;;;;;;35.75;33.00;;;;;6.79;85.95;100384.28;6306581;22;11512;-74
2022/02/07 13:18:53;;;;;;;;;33.25;31.75;;;;;6.80;85.64;100380.41;6308333;22;11560;-74
2022/02/07 13:21:52;;;;;;;;;27.50;25.25;;;;;6.87;85.53;100374.47;6308391;22;11504;-74
2022/02/07 13:24:27;;;;;;;;;34.50;33.75;;;;;6.94;85.52;100380.31;6308412;22;11635;-74
2022/02/07 13:26:59;;;;;;;;;34.50;32.75;;;;;6.87;85.28;100379.97;6317571;22;11510;-74
2022/02/07 13:29:29;;;;;;;;;26.75;24.00;;;;;6.99;84.94;100382.16;6317568;22;11557;-76
2022/02/07 13:31:59;;;;;;;;;63.25;53.50;;;;;6.91;85.63;100381.78;6317477;22;12328;-75
2022/02/07 13:34:32;;;;;;;;;48.75;43.00;;;;;6.96;85.57;100381.63;6317728;22;12290;-75
2022/02/07 13:37:10;;;;;;;;;47.75;43.50;;;;;6.92;85.20;100377.91;6308853;22;11567;-75
2022/02/07 13:39:55;;;;;;;;;31.25;29.50;;;;;6.97;85.04;100369.50;6317468;22;12382;-75
2022/02/07 13:42:28;;;;;;;;;24.25;24.25;;;;;6.98;84.79;100356.59;6317275;22;11508;-75
2022/02/07 13:45:29;;;;;;;;;23.50;23.50;;;;;7.05;84.88;100359.69;6307539;22;11577;-75
2022/02/07 13:48:27;;;;;;;;;42.75;40.75;;;;;7.07;83.89;100354.69;6307527;22;11429;-75
2022/02/07 13:51:25;;;;;;;;;18.00;18.00;;;;;7.16;83.52;100361.06;6325666;22;11617;-76
2022/02/07 13:54:29;;;;;;;;;21.00;21.00;;;;;7.05;84.07;100353.38;6308220;22;11456;-74
2022/02/07 13:57:25;;;;;;;;;24.00;20.00;;;;;7.05;84.10;100356.94;6307324;22;11439;-74
2022/02/07 14:00:23;;;;;;;;;25.00;25.00;;;;;7.06;84.39;100355.03;6307851;22;11566;-77
2022/02/07 14:03:20;;;;;;;;;15.50;15.50;;;;;7.18;83.59;100347.78;6308152;22;11566;-77
2022/02/07 14:06:18;;;;;;;;;22.50;21.25;;;;;7.19;83.18;100349.41;6307355;22;11470;-76
2022/02/07 14:09:15;;;;;;;;;26.25;25.25;;;;;7.20;83.82;100350.22;6305339;22;11455;-75
2022/02/07 14:12:12;;;;;;;;;35.25;28.75;;;;;7.16;83.62;100349.25;6307696;22;11568;-74
2022/02/07 14:15:08;;;;;;;;;35.50;33.00;;;;;7.14;84.03;100333.06;6305646;22;11449;-74
2022/02/07 14:18:07;;;;;;;;;23.00;23.00;;;;;7.16;84.09;100333.53;6307714;22;11522;-76
2022/02/07 14:21:09;;;;;;;;;27.75;27.25;;;;;7.19;84.31;100332.91;6307741;22;11440;-74
2022/02/07 14:24:05;;;;;;;;;30.00;30.00;;;;;7.12;84.76;100326.22;6306897;22;11514;-75
2022/02/07 14:27:01;;;;;;;;;30.00;28.75;;;;;7.04;84.82;100332.50;6307332;22;11482;-75
2022/02/07 14:29:57;;;;;;;;;33.50;32.75;;;;;7.09;84.85;100324.13;6307611;22;11515;-75
2022/02/07 14:32:53;;;;;;;;;26.75;26.75;;;;;7.07;85.20;100329.13;6307387;22;11600;-71
2022/02/07 14:35:48;;;;;;;;;33.00;32.75;;;;;7.17;85.31;100343.41;6307465;22;11462;-72
2022/02/07 14:38:44;;;;;;;;;46.25;42.00;;;;;7.00;85.90;100340.59;6307379;22;11508;-71
2022/02/07 14:41:40;;;;;;;;;29.00;29.00;;;;;7.11;85.82;100343.88;6307304;22;11508;-71
2022/02/07 14:44:57;;;;;;;;;41.00;38.00;;;;;7.09;86.37;100338.69;6305204;22;11505;-70
2022/02/07 14:47:51;;;;;;;;;40.50;38.25;;;;;7.01;86.27;100327.66;6307465;22;11586;-70
2022/02/07 14:50:47;;;;;;;;;33.50;32.25;;;;;7.05;86.56;100332.19;6307515;22;11593;-71
2022/02/07 14:53:45;;;;;;;;;30.00;29.25;;;;;7.05;86.88;100331.38;6307426;22;11510;-70
2022/02/07 14:56:41;;;;;;;;;37.00;36.75;;;;;6.99;87.00;100327.16;6306424;22;11532;-70
2022/02/07 14:59:36;;;;;;;;;42.25;40.25;;;;;7.03;86.99;100323.44;6324635;22;12197;-72
2022/02/07 15:02:32;;;;;;;;;44.75;41.50;;;;;7.06;87.17;100328.34;6307106;22;11555;-70
2022/02/07 15:05:31;;;;;;;;;51.00;45.75;;;;;7.09;86.96;100340.63;6306966;22;11610;-71
2022/02/07 15:08:28;;;;;;;;;57.50;47.75;;;;;7.02;87.35;100341.06;6307354;22;12307;-72
2022/02/07 15:11:27;;;;;;;;;56.75;48.50;;;;;7.02;87.27;100332.81;6307129;22;11634;-71
2022/02/07 15:14:23;;;;;;;;;56.25;48.00;;;;;7.09;87.26;100324.94;6307023;22;11538;-71
2022/02/07 15:17:21;;;;;;;;;54.75;46.25;;;;;6.99;87.24;100310.66;6306650;22;12183;-72
2022/02/07 15:20:16;;;;;;;;;68.75;53.75;;;;;6.90;88.04;100308.69;6306692;22;11554;-71
2022/02/07 15:23:12;;;;;;;;;73.25;57.00;;;;;6.88;88.49;100313.66;6307128;22;11668;-72
2022/02/07 15:26:09;;;;;;;;;69.00;54.25;;;;;6.95;87.83;100311.28;6306513;22;11522;-72
2022/02/07 15:29:05;;;;;;;;;89.33;68.00;;;;;6.73;88.56;100303.06;6306479;22;11511;-72
2022/02/07 15:32:21;;;;;;;;;64.25;52.50;;;;;6.82;88.65;100314.91;6306583;22;11677;-71
2022/02/07 15:35:16;;;;;;;;;63.25;50.75;;;;;6.75;88.84;100302.75;6306981;22;11610;-72
2022/02/07 15:38:13;;;;;;;;;62.75;51.50;;;;;6.68;89.46;100308.72;6305705;22;12236;-72
2022/02/07 15:41:08;;;;;;;;;56.00;48.75;;;;;6.66;89.28;100308.19;6306823;22;12213;-72
2022/02/07 15:44:04;;;;;;;;;70.50;55.75;;;;;6.64;89.47;100316.75;6306558;22;11516;-73
2022/02/07 15:47:00;;;;;;;;;62.25;51.25;;;;;6.61;89.75;100308.34;6306787;22;11607;-72
2022/02/07 15:49:56;;;;;;;;;64.50;53.50;;;;;6.57;89.64;100313.63;6306890;22;11508;-73
2022/02/07 15:52:52;;;;;;;;;57.75;49.25;;;;;6.58;89.66;100311.69;6306666;22;11590;-73
2022/02/07 15:55:49;;;;;;;;;67.50;55.25;;;;;6.49;89.94;100319.88;6306547;22;11597;-72
2022/02/07 15:58:45;;;;;;;;;44.00;39.75;;;;;6.40;89.98;100322.56;6306585;22;11526;-73
2022/02/07 16:01:41;;;;;;;;;60.25;51.25;;;;;6.50;89.05;100321.50;6306162;22;11577;-73
2022/02/07 16:04:41;;;;;;;;;59.00;51.50;;;;;6.34;90.23;100315.56;6306526;22;11519;-73
2022/02/07 16:07:39;;;;;;;;;60.50;51.00;;;;;6.33;90.52;100318.63;6305747;22;11519;-72
2022/02/07 16:10:37;;;;;;;;;59.25;50.00;;;;;6.37;90.26;100314.16;6307224;22;11528;-72
2022/02/07 16:13:37;;;;;;;;;53.25;42.25;;;;;6.29;90.49;100315.72;6306652;22;11552;-74
2022/02/07 16:16:32;;;;;;;;;58.25;49.75;;;;;6.25;90.63;100303.72;6306109;22;11502;-73
2022/02/07 16:19:31;;;;;;;;;62.25;52.25;;;;;6.14;90.93;100305.09;6305258;22;11502;-72
2022/02/07 16:22:26;;;;;;;;;58.25;48.00;;;;;6.23;90.57;100302.41;6306278;22;11544;-71